Bexley, Ohio
Current Conditions -  °F | °C
As of 7:51 AM on Wednesday 22 Oct 2014 (Local Time) from KCMH Reporting Station
Overcast Overcast  
Wind Chill: 38°   Ceiling: 900
Heat Index: 44°   Visibility: 7mi
Dew Point: 40°   Wind: 13mph
Humidity: 85%   Direction: 340°NNW
Pressure: 30.22"   Gusts: NA
Location:  39.96°N, 82.94°W
Report Text: KCMH 221151Z 34011KT 7SM OVC009 07/04 A3022 RMK AO2 SLP237 70007 T00670044 10072 20067 53018
Loading
Personal Weather Stations






























Interactive Weather Map
Tropical Storm Tracking
New forecast layout! Learn more

10-Day Weather Forecast

Advertisements
Track Severe Weather on mobile